Time;durP1;ratioP1;P1;durP2;ratioP2;P2;SDS_P1;SDS_P2;PMS_P1;PMS_P2;Temp;Humidity;BMP_temperature;BMP_pressure;BME280_temperature;BME280_humidity;BME280_pressure;Samples;Min_cycle;Max_cycle;Signal;HPM_P1;HPM_P2
2022/04/07 00:01:15;;;;;;;0.50;0.50;;;10.50;99.90;;;;;;5073785;28;20420;-68
2022/04/07 00:04:03;;;;;;;0.40;0.40;;;10.60;99.90;;;;;;5073134;28;20795;-68
2022/04/07 00:06:50;;;;;;;0.97;0.97;;;10.60;99.90;;;;;;5073131;28;20431;-67
2022/04/07 00:09:37;;;;;;;0.40;0.40;;;10.60;99.90;;;;;;5073798;28;20470;-67
2022/04/07 00:12:24;;;;;;;0.40;0.40;;;10.70;99.90;;;;;;5073805;28;20424;-67
2022/04/07 00:15:11;;;;;;;0.40;0.40;;;10.70;99.90;;;;;;5074020;28;20424;-67
2022/04/07 00:17:58;;;;;;;0.40;0.40;;;10.60;99.90;;;;;;5074478;28;20925;-67
2022/04/07 00:20:47;;;;;;;0.40;0.40;;;10.50;99.90;;;;;;5074645;28;20427;-68
2022/04/07 00:23:34;;;;;;;0.50;0.50;;;10.40;99.90;;;;;;5076223;28;20417;-68
2022/04/07 00:26:20;;;;;;;0.40;0.40;;;10.30;99.90;;;;;;5076812;28;20911;-67
2022/04/07 00:29:07;;;;;;;0.40;0.40;;;10.30;99.90;;;;;;5075018;28;20936;-68
2022/04/07 00:31:56;;;;;;;0.40;0.40;;;10.20;99.90;;;;;;5075326;28;20422;-68
2022/04/07 00:34:46;;;;;;;0.40;0.40;;;10.10;99.90;;;;;;5075944;28;20553;-68
2022/04/07 00:37:34;;;;;;;0.40;0.40;;;10.20;99.90;;;;;;5075004;28;20420;-68
2022/04/07 00:40:21;;;;;;;0.40;0.40;;;10.10;99.90;;;;;;5073827;28;20471;-68
2022/04/07 00:43:08;;;;;;;0.40;0.40;;;10.00;99.90;;;;;;5074639;28;20812;-68
2022/04/07 00:45:55;;;;;;;0.40;0.40;;;9.90;99.90;;;;;;5074969;28;20419;-69
2022/04/07 00:48:42;;;;;;;0.40;0.40;;;9.80;99.90;;;;;;5074758;28;20465;-67
2022/04/07 00:51:29;;;;;;;0.40;0.40;;;9.80;99.90;;;;;;5075413;28;20509;-69
2022/04/07 00:54:18;;;;;;;0.40;0.40;;;9.80;99.90;;;;;;5076835;28;20456;-69
2022/04/07 00:57:07;;;;;;;0.40;0.40;;;9.90;99.90;;;;;;5073197;28;20427;-68
2022/04/07 00:59:55;;;;;;;0.40;0.40;;;9.80;99.90;;;;;;5072237;28;20474;-67
2022/04/07 01:02:42;;;;;;;0.40;0.40;;;9.80;99.90;;;;;;5073592;28;20432;-67
2022/04/07 01:05:29;;;;;;;0.40;0.40;;;9.80;99.90;;;;;;5078335;28;20427;-68
2022/04/07 01:08:16;;;;;;;0.40;0.40;;;9.60;99.90;;;;;;5074529;28;20427;-67
2022/04/07 01:11:05;;;;;;;0.40;0.40;;;9.50;99.90;;;;;;5076014;28;20449;-66
2022/04/07 01:13:53;;;;;;;0.40;0.40;;;9.70;99.90;;;;;;5076716;28;20466;-68
2022/04/07 01:16:40;;;;;;;0.40;0.40;;;9.60;99.90;;;;;;5079017;28;20424;-67
2022/04/07 01:19:27;;;;;;;0.40;0.40;;;9.70;99.90;;;;;;5075767;28;20439;-68
2022/04/07 01:22:14;;;;;;;0.40;0.40;;;11.40;99.90;;;;;;5074036;28;20428;-68
2022/04/07 01:25:03;;;;;;;0.40;0.40;;;9.70;99.90;;;;;;5072805;28;20423;-67
2022/04/07 01:27:50;;;;;;;1.53;1.10;;;9.60;99.90;;;;;;5072469;28;20452;-68
2022/04/07 01:30:37;;;;;;;0.40;0.40;;;9.60;99.90;;;;;;5072709;28;20431;-68
2022/04/07 01:33:24;;;;;;;0.40;0.40;;;9.60;99.90;;;;;;5071416;28;20470;-68
2022/04/07 01:36:13;;;;;;;0.40;0.40;;;9.60;99.90;;;;;;5072331;28;20432;-68
2022/04/07 01:39:02;;;;;;;0.40;0.40;;;9.60;99.90;;;;;;5072242;28;20479;-68
2022/04/07 01:41:51;;;;;;;0.40;0.40;;;9.50;99.90;;;;;;5072029;28;20419;-68
2022/04/07 01:44:41;;;;;;;0.40;0.40;;;9.50;99.90;;;;;;5073828;28;20439;-68
2022/04/07 01:47:29;;;;;;;0.40;0.40;;;9.50;99.90;;;;;;5072385;28;20455;-68
2022/04/07 01:50:17;;;;;;;0.40;0.40;;;9.40;99.90;;;;;;5074949;28;20447;-68
2022/04/07 01:53:05;;;;;;;0.40;0.40;;;9.40;99.90;;;;;;5075736;28;20420;-68
2022/04/07 01:55:52;;;;;;;0.40;0.40;;;9.40;99.90;;;;;;5078447;28;20431;-68
2022/04/07 01:58:41;;;;;;;0.40;0.40;;;9.30;99.90;;;;;;5077884;28;20447;-68
2022/04/07 02:01:28;;;;;;;0.40;0.40;;;9.30;99.90;;;;;;5077519;28;20427;-68
2022/04/07 02:04:15;;;;;;;0.40;0.40;;;9.30;99.90;;;;;;5077540;28;20411;-68
2022/04/07 02:07:02;;;;;;;0.40;0.40;;;9.40;99.90;;;;;;5076837;28;21013;-68
2022/04/07 02:09:48;;;;;;;0.50;0.50;;;9.30;99.90;;;;;;5077891;28;20443;-68
2022/04/07 02:12:37;;;;;;;0.40;0.40;;;9.30;99.90;;;;;;5076450;28;20947;-68
2022/04/07 02:15:26;;;;;;;0.40;0.40;;;9.30;99.90;;;;;;5078315;28;20455;-68
2022/04/07 02:18:13;;;;;;;1.47;0.80;;;9.30;99.90;;;;;;5082449;22;20521;-68
2022/04/07 02:21:00;;;;;;;0.40;0.40;;;9.30;99.90;;;;;;5034272;28;20425;-68
2022/04/07 02:23:47;;;;;;;0.60;0.60;;;9.40;99.90;;;;;;5034001;28;20421;-67
2022/04/07 02:26:34;;;;;;;0.40;0.40;;;9.30;99.90;;;;;;5034469;28;20421;-68
2022/04/07 02:29:21;;;;;;;0.80;0.80;;;9.30;99.90;;;;;;5034295;28;20521;-68
2022/04/07 02:32:11;;;;;;;0.40;0.40;;;9.30;99.90;;;;;;5034420;28;20429;-68
2022/04/07 02:34:58;;;;;;;0.50;0.50;;;9.30;99.90;;;;;;5037974;28;20469;-67
2022/04/07 02:37:45;;;;;;;0.80;0.80;;;9.20;99.90;;;;;;5038921;28;20429;-67
2022/04/07 02:40:32;;;;;;;0.50;0.50;;;9.20;99.90;;;;;;5039109;28;20438;-68
2022/04/07 02:43:19;;;;;;;0.40;0.40;;;9.30;99.90;;;;;;5035337;28;20422;-68
2022/04/07 02:46:06;;;;;;;0.50;0.50;;;9.30;99.90;;;;;;5034122;28;20476;-69
2022/04/07 02:48:54;;;;;;;0.40;0.40;;;9.40;99.90;;;;;;5033827;28;20527;-68
2022/04/07 02:51:41;;;;;;;0.50;0.50;;;9.30;99.90;;;;;;5033542;28;20434;-68
2022/04/07 02:54:28;;;;;;;0.40;0.40;;;9.10;99.90;;;;;;5033798;28;20977;-68
2022/04/07 02:57:15;;;;;;;1.17;1.17;;;9.20;99.90;;;;;;5033760;28;20505;-68
2022/04/07 03:00:04;;;;;;;0.50;0.50;;;9.10;99.90;;;;;;5034248;28;20421;-68
2022/04/07 03:02:50;;;;;;;0.40;0.40;;;9.10;99.90;;;;;;5033913;28;20832;-70
2022/04/07 03:05:39;;;;;;;0.40;0.40;;;9.10;99.90;;;;;;5034482;28;20425;-68
2022/04/07 03:08:26;;;;;;;0.43;0.43;;;9.10;99.90;;;;;;5033074;28;20445;-68
2022/04/07 03:11:13;;;;;;;0.50;0.50;;;9.10;99.90;;;;;;5033676;28;20775;-68
2022/04/07 03:14:00;;;;;;;0.40;0.40;;;9.10;99.90;;;;;;5033032;28;20551;-68
2022/04/07 03:16:48;;;;;;;1.43;0.87;;;9.10;99.90;;;;;;5033076;28;20994;-67
2022/04/07 03:19:35;;;;;;;0.40;0.40;;;9.10;99.90;;;;;;5033386;28;20544;-69
2022/04/07 03:22:25;;;;;;;0.40;0.40;;;9.10;99.90;;;;;;5034091;28;20430;-68
2022/04/07 03:25:12;;;;;;;0.50;0.50;;;9.20;99.90;;;;;;5034438;28;20426;-67
2022/04/07 03:27:59;;;;;;;0.50;0.50;;;9.20;99.90;;;;;;5033057;28;20456;-67
2022/04/07 03:30:46;;;;;;;1.27;0.60;;;9.30;99.90;;;;;;5033614;28;20536;-68
2022/04/07 03:33:33;;;;;;;2.93;0.77;;;9.30;99.90;;;;;;5033701;28;20436;-68
2022/04/07 03:36:20;;;;;;;0.60;0.60;;;9.50;99.90;;;;;;5033262;28;20980;-68
2022/04/07 03:39:09;;;;;;;0.60;0.60;;;9.40;99.90;;;;;;5033210;28;20450;-67
2022/04/07 03:41:55;;;;;;;0.50;0.50;;;9.50;99.90;;;;;;5033214;28;20523;-67
2022/04/07 03:44:42;;;;;;;0.40;0.40;;;9.60;99.90;;;;;;5032628;28;20472;-68
2022/04/07 03:47:30;;;;;;;0.50;0.50;;;9.60;99.90;;;;;;5033324;28;20429;-68
2022/04/07 03:50:17;;;;;;;0.40;0.40;;;9.70;99.90;;;;;;5032840;28;20957;-68
2022/04/07 03:53:04;;;;;;;0.40;0.40;;;9.70;99.90;;;;;;5032620;28;20948;-68
2022/04/07 03:55:53;;;;;;;0.40;0.40;;;9.70;99.90;;;;;;5032138;28;20465;-67
2022/04/07 03:58:39;;;;;;;0.50;0.50;;;9.80;99.90;;;;;;5032872;28;20449;-68
2022/04/07 04:01:26;;;;;;;0.70;0.70;;;9.80;99.90;;;;;;5032379;28;20988;-68
2022/04/07 04:04:15;;;;;;;0.40;0.40;;;9.80;99.90;;;;;;5032286;28;20433;-67
2022/04/07 04:07:01;;;;;;;1.03;1.03;;;9.80;99.90;;;;;;5033642;28;20421;-68
2022/04/07 04:09:48;;;;;;;0.40;0.40;;;9.80;99.90;;;;;;5034318;28;20453;-68
2022/04/07 04:12:37;;;;;;;0.50;0.50;;;9.90;99.90;;;;;;5032380;28;20432;-68
2022/04/07 04:15:24;;;;;;;0.40;0.40;;;9.90;99.90;;;;;;5033234;28;20497;-67
2022/04/07 04:18:12;;;;;;;0.40;0.40;;;9.90;99.90;;;;;;5032962;28;20981;-68
2022/04/07 04:20:59;;;;;;;0.40;0.40;;;9.90;99.90;;;;;;5032980;28;20425;-68
2022/04/07 04:23:46;;;;;;;0.40;0.40;;;9.90;99.90;;;;;;5032245;28;20460;-67
2022/04/07 04:26:32;;;;;;;0.40;0.40;;;9.90;99.90;;;;;;5032837;28;20429;-69
2022/04/07 04:29:21;;;;;;;0.40;0.40;;;9.90;99.90;;;;;;5032828;28;20442;-68
2022/04/07 04:32:09;;;;;;;0.40;0.40;;;10.00;99.90;;;;;;5032125;28;20425;-69
2022/04/07 04:34:56;;;;;;;0.40;0.40;;;10.00;99.90;;;;;;5033453;28;20465;-68
2022/04/07 04:37:42;;;;;;;0.50;0.50;;;10.00;99.90;;;;;;5032636;28;20426;-68
2022/04/07 04:40:29;;;;;;;0.40;0.40;;;10.00;99.90;;;;;;5033303;28;20933;-68
2022/04/07 04:43:16;;;;;;;0.40;0.40;;;10.10;99.90;;;;;;5032630;28;20425;-68
2022/04/07 04:46:05;;;;;;;0.40;0.40;;;10.10;99.90;;;;;;5032940;28;20447;-69
2022/04/07 04:48:52;;;;;;;0.40;0.40;;;10.20;99.90;;;;;;5032251;28;20962;-69
2022/04/07 04:51:39;;;;;;;0.47;0.47;;;10.20;99.90;;;;;;5031268;28;20515;-67
2022/04/07 04:54:25;;;;;;;0.40;0.40;;;10.20;99.90;;;;;;5032835;28;20452;-67
2022/04/07 04:57:12;;;;;;;0.70;0.53;;;10.20;99.90;;;;;;5033009;28;20432;-67
2022/04/07 04:59:59;;;;;;;0.40;0.40;;;10.30;99.90;;;;;;5033035;28;20437;-67
2022/04/07 05:02:48;;;;;;;0.40;0.40;;;10.30;99.90;;;;;;5032492;28;20425;-69
2022/04/07 05:05:35;;;;;;;0.40;0.40;;;10.20;99.90;;;;;;5032842;28;20476;-68
2022/04/07 05:08:22;;;;;;;0.40;0.40;;;10.30;99.90;;;;;;5032480;28;20463;-68
2022/04/07 05:11:09;;;;;;;0.50;0.50;;;10.40;99.90;;;;;;5032539;28;20845;-68
2022/04/07 05:13:55;;;;;;;0.50;0.50;;;10.40;99.90;;;;;;5032045;28;20425;-67
2022/04/07 05:16:42;;;;;;;0.40;0.40;;;10.40;99.90;;;;;;5032483;28;20430;-68
2022/04/07 05:19:31;;;;;;;0.60;0.60;;;10.40;99.90;;;;;;5032529;28;20961;-68
2022/04/07 05:22:18;;;;;;;0.40;0.40;;;10.30;99.90;;;;;;5032889;28;20425;-68
2022/04/07 05:25:05;;;;;;;0.50;0.50;;;10.30;99.90;;;;;;5035649;28;20425;-68
2022/04/07 05:27:52;;;;;;;0.40;0.40;;;10.40;99.90;;;;;;5036082;28;20429;-68
2022/04/07 05:30:39;;;;;;;1.00;0.90;;;10.40;99.90;;;;;;5036225;28;20428;-69
2022/04/07 05:33:26;;;;;;;0.60;0.60;;;10.50;99.90;;;;;;5035683;28;20425;-68
2022/04/07 05:36:15;;;;;;;0.60;0.60;;;10.70;99.90;;;;;;5035809;28;20846;-67
2022/04/07 05:39:03;;;;;;;0.40;0.40;;;10.80;99.90;;;;;;5035894;28;20452;-67
2022/04/07 05:41:50;;;;;;;0.60;0.60;;;10.80;99.90;;;;;;5036122;28;20456;-69
2022/04/07 05:44:37;;;;;;;0.60;0.60;;;11.00;99.90;;;;;;5032890;28;20413;-67
2022/04/07 05:47:24;;;;;;;0.40;0.40;;;11.10;99.90;;;;;;5032348;28;20440;-69
2022/04/07 05:50:11;;;;;;;0.60;0.60;;;11.20;99.90;;;;;;5034728;28;20436;-69
2022/04/07 05:53:00;;;;;;;0.50;0.47;;;11.20;99.90;;;;;;5036151;28;20436;-68
2022/04/07 05:55:47;;;;;;;0.50;0.50;;;11.20;99.90;;;;;;5035776;28;20965;-67
2022/04/07 05:58:34;;;;;;;0.40;0.40;;;11.30;99.90;;;;;;5035737;28;20450;-67
2022/04/07 06:01:21;;;;;;;0.60;0.60;;;11.40;99.90;;;;;;5031454;28;20450;-72
2022/04/07 06:04:08;;;;;;;0.40;0.40;;;11.40;99.90;;;;;;5038399;28;20947;-68
2022/04/07 06:06:54;;;;;;;1.23;1.23;;;11.50;99.90;;;;;;5035649;28;20413;-67
2022/04/07 06:09:43;;;;;;;0.40;0.40;;;11.40;99.90;;;;;;5035438;28;20453;-67
2022/04/07 06:12:30;;;;;;;0.50;0.50;;;11.60;99.90;;;;;;5035202;28;20806;-68
2022/04/07 06:15:17;;;;;;;0.50;0.50;;;11.80;99.90;;;;;;5035157;28;20464;-69
2022/04/07 06:18:05;;;;;;;0.40;0.40;;;11.70;99.90;;;;;;5035196;28;20465;-68
2022/04/07 06:20:52;;;;;;;2.40;0.70;;;11.90;99.90;;;;;;5035313;28;20430;-69
2022/04/07 06:23:39;;;;;;;0.40;0.40;;;11.90;99.90;;;;;;5035126;28;20433;-70
2022/04/07 06:26:28;;;;;;;0.40;0.40;;;12.00;99.90;;;;;;5034315;28;20426;-68
2022/04/07 06:29:15;;;;;;;0.40;0.40;;;12.00;99.90;;;;;;5035150;28;20469;-67
2022/04/07 06:32:01;;;;;;;1.37;1.27;;;12.00;99.90;;;;;;5033846;28;20421;-67
2022/04/07 06:34:48;;;;;;;0.40;0.40;;;12.10;99.90;;;;;;5034024;28;20981;-67
2022/04/07 06:37:45;;;;;;;0.40;0.40;;;12.40;99.90;;;;;;5033916;28;20432;-69
2022/04/07 06:40:32;;;;;;;0.40;0.40;;;12.40;99.90;;;;;;5031419;28;20845;-68
2022/04/07 06:43:22;;;;;;;0.50;0.50;;;12.50;99.90;;;;;;5034121;28;20422;-68
2022/04/07 06:46:09;;;;;;;0.40;0.40;;;12.50;99.90;;;;;;5030596;28;20432;-68
2022/04/07 06:48:56;;;;;;;0.50;0.50;;;12.50;99.90;;;;;;5026955;28;20971;-70
2022/04/07 06:51:42;;;;;;;0.87;0.87;;;12.50;99.90;;;;;;5026432;28;21813;-67
2022/04/07 06:54:29;;;;;;;0.40;0.40;;;12.40;99.90;;;;;;5033539;28;20432;-66
2022/04/07 06:57:16;;;;;;;0.80;0.80;;;12.30;99.90;;;;;;5034584;28;20445;-68
2022/04/07 07:00:11;;;;;;;0.70;0.50;;;12.10;99.90;;;;;;5034223;28;20440;-68
2022/04/07 07:03:00;;;;;;;0.50;0.50;;;12.00;99.90;;;;;;5032034;28;20984;-68
2022/04/07 07:05:47;;;;;;;0.40;0.40;;;12.10;99.90;;;;;;5033813;28;20440;-69
2022/04/07 07:08:33;;;;;;;0.47;0.47;;;12.20;99.90;;;;;;5030090;28;20496;-67
2022/04/07 07:11:20;;;;;;;2.10;1.90;;;12.30;99.90;;;;;;5031929;28;20804;-70
2022/04/07 07:14:07;;;;;;;0.40;0.40;;;12.50;99.90;;;;;;5032817;28;20445;-68
2022/04/07 07:16:55;;;;;;;0.73;0.73;;;12.40;99.90;;;;;;5034711;28;20485;-68
2022/04/07 07:19:43;;;;;;;0.70;0.70;;;12.60;99.90;;;;;;5033965;28;20973;-69
2022/04/07 07:22:30;;;;;;;0.40;0.40;;;12.60;99.90;;;;;;5035206;28;20479;-70
2022/04/07 07:25:17;;;;;;;0.40;0.40;;;12.80;99.90;;;;;;5036180;28;20841;-68
2022/04/07 07:28:05;;;;;;;0.70;0.70;;;13.00;99.90;;;;;;5033442;28;20449;-68
2022/04/07 07:30:52;;;;;;;0.50;0.50;;;13.10;99.90;;;;;;5036873;28;20544;-69
2022/04/07 07:33:40;;;;;;;0.40;0.40;;;13.20;99.90;;;;;;5038246;28;20421;-68
2022/04/07 07:36:27;;;;;;;0.40;0.40;;;13.20;99.90;;;;;;5034742;28;20949;-68
2022/04/07 07:39:14;;;;;;;0.40;0.40;;;13.30;99.90;;;;;;5028169;28;20523;-68
2022/04/07 07:42:01;;;;;;;0.40;0.40;;;13.60;99.90;;;;;;5033204;28;20416;-68
2022/04/07 07:44:48;;;;;;;0.50;0.50;;;13.80;99.90;;;;;;5033274;28;20492;-68
2022/04/07 07:47:35;;;;;;;0.40;0.40;;;13.90;99.90;;;;;;5031504;28;20468;-67
2022/04/07 07:50:24;;;;;;;0.40;0.40;;;13.80;99.90;;;;;;5032363;28;20425;-69
2022/04/07 07:53:11;;;;;;;0.40;0.40;;;13.60;99.90;;;;;;5032468;28;20432;-68
2022/04/07 07:55:58;;;;;;;0.40;0.40;;;13.60;99.90;;;;;;5031316;28;20465;-67
2022/04/07 07:58:45;;;;;;;0.50;0.50;;;13.50;99.90;;;;;;5012927;28;20452;-68
2022/04/07 08:01:32;;;;;;;0.47;0.47;;;13.40;99.90;;;;;;5012805;28;20961;-71
2022/04/07 08:04:19;;;;;;;0.40;0.40;;;13.30;99.90;;;;;;5032898;28;20429;-68
2022/04/07 08:07:07;;;;;;;1.63;0.80;;;13.40;99.90;;;;;;5033233;28;20964;-66
2022/04/07 08:09:56;;;;;;;0.40;0.40;;;13.60;99.90;;;;;;5031705;28;20970;-70
2022/04/07 08:12:43;;;;;;;0.60;0.60;;;13.80;99.90;;;;;;5035062;28;20518;-68
2022/04/07 08:15:31;;;;;;;0.40;0.40;;;14.00;99.90;;;;;;5038082;28;20483;-69
2022/04/07 08:18:18;;;;;;;0.40;0.40;;;14.10;99.90;;;;;;5031240;28;20861;-68
2022/04/07 08:21:05;;;;;;;2.80;0.50;;;14.10;99.90;;;;;;5032862;28;20455;-68
2022/04/07 08:23:54;;;;;;;0.50;0.50;;;14.20;99.90;;;;;;5032750;28;20960;-69
2022/04/07 08:26:42;;;;;;;0.87;0.60;;;14.20;99.90;;;;;;5034068;28;20844;-68
2022/04/07 08:29:29;;;;;;;0.40;0.40;;;14.50;99.90;;;;;;5039100;28;20468;-67
2022/04/07 08:32:15;;;;;;;0.60;0.60;;;14.80;99.90;;;;;;5038688;28;20436;-68
2022/04/07 08:35:03;;;;;;;0.40;0.40;;;15.10;99.90;;;;;;5036162;28;20429;-68
2022/04/07 08:37:50;;;;;;;0.73;0.67;;;15.20;99.90;;;;;;5031635;28;20512;-67
2022/04/07 08:40:40;;;;;;;0.50;0.50;;;15.20;99.90;;;;;;5035008;28;20425;-68
2022/04/07 08:43:27;;;;;;;0.40;0.40;;;15.20;99.90;;;;;;5039059;28;20437;-67
2022/04/07 08:46:14;;;;;;;0.40;0.40;;;15.10;99.90;;;;;;5032838;28;20477;-67
2022/04/07 08:49:04;;;;;;;0.40;0.40;;;15.10;99.90;;;;;;5039332;28;20444;-67
2022/04/07 08:51:52;;;;;;;0.50;0.50;;;15.20;99.90;;;;;;5052016;28;20492;-68
2022/04/07 08:54:39;;;;;;;0.40;0.40;;;15.40;99.90;;;;;;5035513;28;20528;-68
2022/04/07 08:57:31;;;;;;;0.40;0.40;;;15.60;99.90;;;;;;5037287;28;20469;-67
2022/04/07 09:00:18;;;;;;;0.40;0.40;;;15.90;99.90;;;;;;5041179;28;20825;-69
2022/04/07 09:03:05;;;;;;;0.40;0.40;;;16.10;99.90;;;;;;5044350;28;20444;-66
2022/04/07 09:05:55;;;;;;;0.40;0.40;;;16.40;99.90;;;;;;5042505;28;20417;-67
2022/04/07 09:08:42;;;;;;;0.40;0.40;;;16.30;99.90;;;;;;5056275;28;20448;-68
2022/04/07 09:11:29;;;;;;;0.50;0.50;;;16.40;99.90;;;;;;5055661;28;20439;-68
2022/04/07 09:14:18;;;;;;;0.40;0.40;;;16.40;99.90;;;;;;5045590;28;20209;-68
2022/04/07 09:17:05;;;;;;;0.40;0.40;;;16.20;99.90;;;;;;5041472;28;20602;-68
2022/04/07 09:19:53;;;;;;;0.50;0.50;;;16.10;99.90;;;;;;5036365;28;20461;-68
2022/04/07 09:22:40;;;;;;;0.40;0.40;;;15.90;99.90;;;;;;5036009;28;20210;-69
2022/04/07 09:25:28;;;;;;;0.40;0.40;;;15.50;99.90;;;;;;5036167;28;20210;-67
2022/04/07 09:28:28;;;;;;;0.50;0.50;;;15.80;99.90;;;;;;5036871;28;20449;-67
2022/04/07 09:31:17;;;;;;;0.50;0.50;;;15.70;99.90;;;;;;5035868;28;20209;-67
2022/04/07 09:34:04;;;;;;;0.40;0.40;;;15.60;99.90;;;;;;5035471;28;21112;-70
2022/04/07 09:37:04;;;;;;;0.40;0.40;;;15.50;99.90;;;;;;5035876;28;20981;-67
2022/04/07 09:40:02;;;;;;;0.40;0.40;;;15.50;99.90;;;;;;5033809;28;20552;-68
2022/04/07 09:42:58;;;;;;;0.50;0.50;;;15.60;99.90;;;;;;5024099;28;21073;-67
2022/04/07 09:45:45;;;;;;;0.60;0.60;;;15.80;99.90;;;;;;5032005;28;20922;-69
2022/04/07 09:48:34;;;;;;;0.50;0.50;;;15.70;99.90;;;;;;5042921;28;20474;-69
2022/04/07 09:51:21;;;;;;;0.40;0.40;;;15.80;99.90;;;;;;5036263;28;20798;-71
2022/04/07 09:54:12;;;;;;;0.40;0.40;;;15.80;99.90;;;;;;5031354;28;20413;-67
2022/04/07 09:56:59;;;;;;;0.60;0.60;;;15.60;99.90;;;;;;5029331;28;20453;-69
2022/04/07 09:59:47;;;;;;;0.40;0.40;;;15.70;99.90;;;;;;5029682;28;20452;-68
2022/04/07 10:02:34;;;;;;;0.40;0.40;;;16.00;99.90;;;;;;5029758;28;20426;-70
2022/04/07 10:05:25;;;;;;;0.40;0.40;;;16.40;99.90;;;;;;5033009;28;20218;-69
2022/04/07 10:08:12;;;;;;;0.40;0.40;;;16.50;99.90;;;;;;5034492;28;20945;-67
2022/04/07 10:10:59;;;;;;;0.40;0.40;;;16.40;99.90;;;;;;5044517;28;20421;-68
2022/04/07 10:13:48;;;;;;;0.67;0.60;;;16.30;99.90;;;;;;5054327;28;20439;-67
2022/04/07 10:16:35;;;;;;;0.50;0.50;;;16.10;99.90;;;;;;5022115;28;20222;-67
2022/04/07 10:19:28;;;;;;;0.43;0.43;;;16.00;99.90;;;;;;5034174;28;20226;-68
2022/04/07 10:22:45;;;;;;;0.40;0.40;;;15.70;99.90;;;;;;5033926;28;20429;-68
2022/04/07 10:25:35;;;;;;;0.40;0.40;;;15.60;99.90;;;;;;5034117;28;20524;-69
2022/04/07 10:28:25;;;;;;;0.40;0.40;;;15.60;99.90;;;;;;5034353;28;20465;-67
2022/04/07 10:31:14;;;;;;;0.40;0.40;;;15.60;99.90;;;;;;5034102;28;20194;-69
2022/04/07 10:34:07;;;;;;;0.40;0.40;;;15.50;99.90;;;;;;5041869;28;20457;-67
2022/04/07 10:37:02;;;;;;;0.40;0.40;;;15.50;99.90;;;;;;5053408;28;20923;-68
2022/04/07 10:39:51;;;;;;;0.40;0.40;;;15.30;99.90;;;;;;5039381;28;20461;-68
2022/04/07 10:43:18;;;;;;;0.40;0.40;;;15.30;99.90;;;;;;5030891;28;20426;-68
2022/04/07 10:46:11;;;;;;;0.40;0.40;;;15.20;99.90;;;;;;5028340;28;20449;-67
2022/04/07 10:49:04;;;;;;;0.40;0.40;;;15.10;99.90;;;;;;5033328;28;20442;-68
2022/04/07 10:51:52;;;;;;;0.40;0.40;;;15.00;99.90;;;;;;5032772;28;20433;-68
2022/04/07 10:55:12;;;;;;;0.40;0.40;;;14.90;99.90;;;;;;5034403;28;20429;-68
2022/04/07 10:58:11;;;;;;;0.40;0.40;;;15.00;99.90;;;;;;5034516;28;20480;-69
2022/04/07 11:00:58;;;;;;;0.50;0.50;;;15.00;99.90;;;;;;5034013;28;20440;-67
2022/04/07 11:04:28;;;;;;;0.40;0.40;;;15.00;99.90;;;;;;5033636;28;20961;-67
2022/04/07 11:07:17;;;;;;;0.40;0.40;;;15.00;99.90;;;;;;5032941;28;20429;-68
2022/04/07 11:10:11;;;;;;;0.50;0.50;;;15.00;99.90;;;;;;5028499;28;20959;-69
2022/04/07 11:13:04;;;;;;;0.40;0.40;;;15.10;99.90;;;;;;5035070;28;20448;-71
2022/04/07 11:15:52;;;;;;;0.40;0.40;;;15.20;99.90;;;;;;5026397;28;20432;-68
2022/04/07 11:18:49;;;;;;;0.40;0.40;;;15.20;99.90;;;;;;5031564;28;20495;-68
2022/04/07 11:21:49;;;;;;;0.43;0.43;;;15.10;99.90;;;;;;5032890;28;20509;-70
2022/04/07 11:24:43;;;;;;;0.40;0.40;;;15.10;99.90;;;;;;5033771;28;20426;-70
2022/04/07 11:27:35;;;;;;;0.47;0.47;;;15.10;99.90;;;;;;5032744;28;20845;-67
2022/04/07 11:30:37;;;;;;;0.40;0.40;;;15.10;99.90;;;;;;5034037;28;20520;-69
2022/04/07 11:33:28;;;;;;;0.40;0.40;;;15.20;99.90;;;;;;5033807;28;20425;-68
2022/04/07 11:36:41;;;;;;;0.60;0.60;;;15.30;99.90;;;;;;5033303;28;20457;-67
2022/04/07 11:39:32;;;;;;;0.40;0.40;;;15.40;99.90;;;;;;5033283;28;20430;-70
2022/04/07 11:42:21;;;;;;;0.90;0.60;;;15.40;99.90;;;;;;5032747;28;20437;-68
2022/04/07 11:45:08;;;;;;;0.40;0.40;;;15.40;99.90;;;;;;5030779;28;20473;-68
2022/04/07 11:47:57;;;;;;;0.40;0.40;;;15.30;99.90;;;;;;5035908;28;20445;-70
2022/04/07 11:50:44;;;;;;;0.57;0.50;;;15.30;99.90;;;;;;5032922;28;20566;-68
2022/04/07 11:53:31;;;;;;;0.40;0.40;;;15.10;99.90;;;;;;5032271;28;20435;-69
2022/04/07 11:56:21;;;;;;;0.40;0.40;;;15.00;99.90;;;;;;5032129;28;20467;-69
2022/04/07 11:59:10;;;;;;;0.40;0.40;;;14.90;99.90;;;;;;5031585;28;20449;-67
2022/04/07 12:01:57;;;;;;;0.60;0.50;;;14.60;99.90;;;;;;5032006;28;20428;-69
2022/04/07 12:04:46;;;;;;;0.40;0.40;;;14.40;99.90;;;;;;5029729;28;20452;-69
2022/04/07 12:07:33;;;;;;;0.40;0.40;;;14.40;99.90;;;;;;5028103;28;20430;-68
2022/04/07 12:10:20;;;;;;;0.40;0.40;;;14.40;99.90;;;;;;5032071;28;20468;-68
2022/04/07 12:13:07;;;;;;;0.40;0.40;;;14.50;99.90;;;;;;5032522;28;20428;-68
2022/04/07 12:15:54;;;;;;;0.40;0.40;;;14.50;99.90;;;;;;5032429;28;20928;-69
2022/04/07 12:18:43;;;;;;;0.40;0.40;;;14.50;99.90;;;;;;5032388;28;20460;-68
2022/04/07 12:21:51;;;;;;;0.50;0.50;;;14.40;99.90;;;;;;5031630;28;20527;-69
2022/04/07 12:24:38;;;;;;;0.40;0.40;;;14.30;99.90;;;;;;5031301;28;20433;-68
2022/04/07 12:27:31;;;;;;;0.50;0.50;;;14.30;99.90;;;;;;5032787;28;20421;-68
2022/04/07 12:30:18;;;;;;;0.40;0.40;;;14.30;99.90;;;;;;5032530;28;20455;-70
2022/04/07 12:33:05;;;;;;;0.40;0.40;;;14.40;99.90;;;;;;5032384;28;20425;-68
2022/04/07 12:35:52;;;;;;;0.40;0.40;;;14.40;99.90;;;;;;5032994;28;20440;-68
2022/04/07 12:38:41;;;;;;;0.40;0.40;;;14.40;99.90;;;;;;5040248;28;20452;-69
2022/04/07 12:41:37;;;;;;;0.40;0.40;;;14.30;99.90;;;;;;5038450;28;20440;-72
2022/04/07 12:44:34;;;;;;;0.50;0.50;;;14.20;99.90;;;;;;5037336;28;20453;-69
2022/04/07 12:47:26;;;;;;;0.40;0.40;;;14.10;99.90;;;;;;5026113;28;20501;-69
2022/04/07 12:50:13;;;;;;;0.40;0.40;;;14.30;99.90;;;;;;5022621;28;20526;-69
2022/04/07 12:53:00;;;;;;;0.40;0.40;;;14.90;99.90;;;;;;5026478;28;20898;-68
2022/04/07 12:55:48;;;;;;;0.40;0.40;;;15.60;99.90;;;;;;5032705;28;20531;-68
2022/04/07 12:58:35;;;;;;;0.40;0.40;;;16.00;99.90;;;;;;5041110;28;20463;-70
2022/04/07 13:01:22;;;;;;;0.40;0.40;;;16.00;99.90;;;;;;5029118;28;20426;-69
2022/04/07 13:04:10;;;;;;;0.40;0.40;;;15.70;99.90;;;;;;5030048;28;20245;-69
2022/04/07 13:06:57;;;;;;;0.40;0.40;;;15.60;99.90;;;;;;5032859;28;20205;-69
2022/04/07 13:09:44;;;;;;;0.40;0.40;;;15.50;99.90;;;;;;5030467;28;20233;-67
2022/04/07 13:12:32;;;;;;;0.40;0.40;;;15.40;99.90;;;;;;5032368;28;20433;-68
2022/04/07 13:15:19;;;;;;;0.40;0.40;;;15.30;99.90;;;;;;5032082;28;20426;-68
2022/04/07 13:18:06;;;;;;;0.40;0.40;;;15.00;99.90;;;;;;5032179;28;20233;-68
2022/04/07 13:20:53;;;;;;;0.40;0.40;;;14.90;99.90;;;;;;5032072;28;20429;-70
2022/04/07 13:23:40;;;;;;;0.40;0.40;;;14.80;99.90;;;;;;5031123;28;20831;-68
2022/04/07 13:26:27;;;;;;;0.40;0.40;;;14.70;99.90;;;;;;5032992;28;20433;-68
2022/04/07 13:29:16;;;;;;;0.40;0.40;;;14.70;99.90;;;;;;5032735;28;20445;-70
2022/04/07 13:32:03;;;;;;;0.50;0.50;;;14.70;99.90;;;;;;5033009;28;20429;-68
2022/04/07 13:34:51;;;;;;;0.40;0.40;;;14.70;99.90;;;;;;5032798;28;20421;-68
2022/04/07 13:37:38;;;;;;;0.40;0.40;;;14.60;99.90;;;;;;5032359;28;20473;-69
2022/04/07 13:40:26;;;;;;;0.40;0.40;;;14.40;99.90;;;;;;5032375;28;20803;-70
2022/04/07 13:43:14;;;;;;;0.40;0.40;;;14.20;99.90;;;;;;5032598;28;20930;-69
2022/04/07 13:46:02;;;;;;;0.40;0.40;;;13.90;99.90;;;;;;5035372;28;20426;-68
2022/04/07 13:48:49;;;;;;;34.97;4.40;;;13.60;99.90;;;;;;5035995;28;20448;-70
2022/04/07 13:51:36;;;;;;;0.50;0.50;;;12.80;99.90;;;;;;5035923;28;20822;-73
2022/04/07 13:54:24;;;;;;;0.60;0.60;;;10.20;99.90;;;;;;5038342;28;20424;-73
2022/04/07 13:57:10;;;;;;;0.40;0.40;;;8.70;99.90;;;;;;5038535;28;20467;-73
2022/04/07 13:59:57;;;;;;;0.50;0.50;;;8.30;99.90;;;;;;5035380;28;20448;-73
2022/04/07 14:02:46;;;;;;;0.40;0.40;;;8.10;99.90;;;;;;5036578;28;20836;-72
2022/04/07 14:05:33;;;;;;;0.50;0.50;;;8.10;99.90;;;;;;5035009;28;21077;-72
2022/04/07 14:08:20;;;;;;;1.50;0.70;;;8.10;99.90;;;;;;5025459;28;20442;-72
2022/04/07 14:11:07;;;;;;;0.57;0.57;;;7.90;99.90;;;;;;5025656;28;20431;-73
2022/04/07 14:13:54;;;;;;;0.70;0.60;;;7.90;99.90;;;;;;5037771;28;20436;-74
2022/04/07 14:16:41;;;;;;;0.73;0.73;;;7.70;99.90;;;;;;5039529;28;20500;-71
2022/04/07 14:19:29;;;;;;;0.50;0.50;;;7.80;99.90;;;;;;5038165;28;21075;-74
2022/04/07 14:22:16;;;;;;;3.13;0.50;;;7.80;99.90;;;;;;5039180;28;20432;-72
2022/04/07 14:25:03;;;;;;;0.50;0.50;;;7.90;99.90;;;;;;5047044;28;20425;-74
2022/04/07 14:27:50;;;;;;;0.50;0.50;;;7.40;99.90;;;;;;5018189;28;20406;-71
2022/04/07 14:30:38;;;;;;;0.40;0.40;;;7.30;99.90;;;;;;5017624;28;20433;-71
2022/04/07 14:33:25;;;;;;;1.07;0.70;;;7.20;99.90;;;;;;5018990;28;20501;-72
2022/04/07 14:36:13;;;;;;;0.43;0.43;;;7.20;99.90;;;;;;5026251;28;20423;-72
2022/04/07 14:39:00;;;;;;;1.13;1.13;;;7.20;99.90;;;;;;5057282;28;20471;-73
2022/04/07 14:41:47;;;;;;;0.50;0.50;;;7.10;99.90;;;;;;5051938;28;20432;-73